createdAt,value
2023-06-06T00:00:10.646Z,55.10
2023-06-06T00:02:43.795Z,55.10
2023-06-06T00:05:14.630Z,55.80
2023-06-06T00:07:45.850Z,55.10
2023-06-06T00:10:15.268Z,55.10
2023-06-06T00:12:45.284Z,55.10
2023-06-06T00:15:16.145Z,55.20
2023-06-06T00:17:46.642Z,55.10
2023-06-06T00:20:15.554Z,55.10
2023-06-06T00:22:43.999Z,55.10
2023-06-06T00:25:11.999Z,55.10
2023-06-06T00:27:40.098Z,55.10
2023-06-06T00:30:09.312Z,55.10
2023-06-06T00:32:38.119Z,55.10
2023-06-06T00:35:08.029Z,55.10
2023-06-06T00:37:35.947Z,55.10
2023-06-06T00:40:05.150Z,55.10
2023-06-06T00:42:33.091Z,55.10
2023-06-06T00:45:01.643Z,55.10
2023-06-06T00:47:29.820Z,55.10
2023-06-06T00:49:58.551Z,55.10
2023-06-06T00:52:28.297Z,55.10
2023-06-06T00:54:57.559Z,55.10
2023-06-06T00:57:27.922Z,55.10
2023-06-06T00:59:56.533Z,55.10
2023-06-06T01:02:25.633Z,55.10
2023-06-06T01:04:54.374Z,55.10
2023-06-06T01:07:22.313Z,55.10
2023-06-06T01:09:51.604Z,55.10
2023-06-06T01:12:28.688Z,55.10
2023-06-06T01:15:02.473Z,55.10
2023-06-06T01:17:34.984Z,55.10
2023-06-06T01:20:05.657Z,55.10
2023-06-06T01:22:37.063Z,55.10
2023-06-06T01:25:07.532Z,55.10
2023-06-06T01:27:35.448Z,55.10
2023-06-06T01:30:06.111Z,55.10
2023-06-06T01:32:40.148Z,55.10
2023-06-06T01:35:14.355Z,55.10
2023-06-06T01:37:49.829Z,55.10
2023-06-06T01:40:20.914Z,55.10
2023-06-06T01:42:51.317Z,55.10
2023-06-06T01:45:22.553Z,55.10
2023-06-06T01:47:50.816Z,55.10
2023-06-06T01:50:19.740Z,55.10
2023-06-06T01:52:48.997Z,55.10
2023-06-06T01:55:17.016Z,55.10
2023-06-06T01:57:45.028Z,55.10
2023-06-06T02:00:14.114Z,55.00
2023-06-06T02:02:42.091Z,55.10
2023-06-06T02:05:10.665Z,55.00
2023-06-06T02:07:38.611Z,55.10
2023-06-06T02:10:08.762Z,55.10
2023-06-06T02:12:36.705Z,55.10
2023-06-06T02:15:06.462Z,55.10
2023-06-06T02:17:34.553Z,55.00
2023-06-06T02:20:02.661Z,55.00
2023-06-06T02:22:30.605Z,55.10
2023-06-06T02:24:58.629Z,55.10
2023-06-06T02:27:30.393Z,55.10
2023-06-06T02:29:58.290Z,55.10
2023-06-06T02:32:26.322Z,55.10
2023-06-06T02:34:56.354Z,55.10
2023-06-06T02:37:24.677Z,55.00
2023-06-06T02:39:52.589Z,55.10
2023-06-06T02:42:20.818Z,55.00
2023-06-06T02:44:50.083Z,55.00
2023-06-06T02:47:18.125Z,55.00
2023-06-06T02:49:46.371Z,55.00
2023-06-06T02:52:14.989Z,55.00
2023-06-06T02:54:42.927Z,55.00
2023-06-06T02:57:10.902Z,55.00
2023-06-06T02:59:38.808Z,55.00
2023-06-06T03:02:09.021Z,55.00
2023-06-06T03:04:36.961Z,55.00
2023-06-06T03:07:04.914Z,55.00
2023-06-06T03:09:32.798Z,55.00
2023-06-06T03:12:00.686Z,55.00
2023-06-06T03:14:28.709Z,55.00
2023-06-06T03:16:57.239Z,55.00
2023-06-06T03:19:26.724Z,55.00
2023-06-06T03:21:54.686Z,55.00
2023-06-06T03:24:22.598Z,55.00
2023-06-06T03:26:51.367Z,55.00
2023-06-06T03:29:19.326Z,55.00
2023-06-06T03:31:50.018Z,55.00
2023-06-06T03:34:18.137Z,55.10
2023-06-06T03:36:47.404Z,55.00
2023-06-06T03:39:15.358Z,55.00
2023-06-06T03:41:43.277Z,55.00
2023-06-06T03:44:11.191Z,55.00
2023-06-06T03:46:39.225Z,55.00
2023-06-06T03:49:07.171Z,55.00
2023-06-06T03:51:35.106Z,55.00
2023-06-06T03:54:04.491Z,55.00
2023-06-06T03:56:33.647Z,55.00
2023-06-06T03:59:01.597Z,55.00
2023-06-06T04:01:32.381Z,55.00
2023-06-06T04:04:00.897Z,55.00
2023-06-06T04:06:28.954Z,55.00
2023-06-06T04:08:59.297Z,55.00
2023-06-06T04:11:28.842Z,55.00
2023-06-06T04:13:56.787Z,55.00
2023-06-06T04:16:24.717Z,55.00
2023-06-06T04:18:54.114Z,55.00
2023-06-06T04:21:22.152Z,54.90
2023-06-06T04:23:50.196Z,55.00
2023-06-06T04:26:24.956Z,55.00
2023-06-06T04:28:54.686Z,55.00
2023-06-06T04:31:24.430Z,54.90
2023-06-06T04:33:57.496Z,54.90
2023-06-06T04:36:26.293Z,55.60
2023-06-06T04:39:01.576Z,54.90
2023-06-06T04:44:04.506Z,54.90
2023-06-06T04:46:33.055Z,54.90
2023-06-06T04:49:02.701Z,54.90
2023-06-06T04:51:32.313Z,54.90
2023-06-06T04:54:01.173Z,54.90
2023-06-06T04:56:30.418Z,54.90
2023-06-06T04:58:58.635Z,54.90
2023-06-06T05:01:27.915Z,55.00
2023-06-06T05:03:56.069Z,55.00
2023-06-06T05:06:26.289Z,54.90
2023-06-06T05:08:55.345Z,55.00
2023-06-06T05:11:23.290Z,55.00
2023-06-06T05:13:51.230Z,55.00
2023-06-06T05:16:19.232Z,54.90
2023-06-06T05:18:48.557Z,55.00
2023-06-06T05:21:16.881Z,55.00
2023-06-06T05:23:44.884Z,55.00
2023-06-06T05:26:12.972Z,55.00
2023-06-06T05:28:41.459Z,55.00
2023-06-06T05:31:09.906Z,55.00
2023-06-06T05:33:42.068Z,55.00
2023-06-06T05:36:12.374Z,55.00
2023-06-06T05:38:40.746Z,55.00
2023-06-06T05:41:08.921Z,55.00
2023-06-06T05:43:36.957Z,55.00
2023-06-06T05:46:05.405Z,55.00
2023-06-06T05:48:34.092Z,55.00
2023-06-06T05:51:02.023Z,55.00
2023-06-06T05:53:31.341Z,55.00
2023-06-06T05:55:59.355Z,55.00
2023-06-06T05:58:27.357Z,55.00
2023-06-06T06:00:56.249Z,55.00
2023-06-06T06:03:25.610Z,54.90
2023-06-06T06:05:53.585Z,55.00
2023-06-06T06:08:22.416Z,55.00
2023-06-06T06:10:51.747Z,55.50
2023-06-06T06:13:19.710Z,54.90
2023-06-06T06:15:47.677Z,54.90
2023-06-06T06:18:15.897Z,54.90
2023-06-06T06:20:44.290Z,55.60
2023-06-06T06:23:12.215Z,55.00
2023-06-06T06:25:40.225Z,54.90
2023-06-06T06:28:20.625Z,55.00
2023-06-06T06:30:48.515Z,55.00
2023-06-06T06:33:16.851Z,54.80
2023-06-06T06:35:45.295Z,54.90
2023-06-06T06:38:13.376Z,54.90
2023-06-06T06:40:41.265Z,54.90
2023-06-06T06:43:10.660Z,54.90
2023-06-06T06:45:38.662Z,54.90
2023-06-06T06:48:06.914Z,54.80
2023-06-06T06:50:35.040Z,54.80
2023-06-06T06:53:03.603Z,54.80
2023-06-06T06:55:32.792Z,54.80
2023-06-06T06:58:00.746Z,54.80
2023-06-06T07:00:30.014Z,54.80
2023-06-06T07:02:58.781Z,54.80
2023-06-06T07:05:26.789Z,54.80
2023-06-06T07:07:56.043Z,54.70
2023-06-06T07:10:26.688Z,54.70
2023-06-06T07:12:55.043Z,54.80
2023-06-06T07:15:23.213Z,54.70
2023-06-06T07:17:52.956Z,54.70
2023-06-06T07:20:23.682Z,54.80
2023-06-06T07:22:53.936Z,54.80
2023-06-06T07:25:21.973Z,54.80
2023-06-06T07:27:50.231Z,54.80
2023-06-06T07:30:18.597Z,54.80
2023-06-06T07:32:48.258Z,54.80
2023-06-06T07:35:20.593Z,54.80
2023-06-06T07:37:49.210Z,54.70
2023-06-06T07:40:18.162Z,54.70
2023-06-06T07:42:47.506Z,54.70
2023-06-06T07:45:15.464Z,54.70
2023-06-06T07:47:43.368Z,54.70
2023-06-06T07:50:12.055Z,54.80
2023-06-06T07:52:44.975Z,54.70
2023-06-06T07:55:13.704Z,54.80
2023-06-06T07:57:42.067Z,54.80
2023-06-06T08:00:12.067Z,54.80
2023-06-06T08:02:40.862Z,54.90
2023-06-06T08:05:09.569Z,54.90
2023-06-06T08:07:39.598Z,54.80
2023-06-06T08:10:10.482Z,54.80
2023-06-06T08:12:39.111Z,54.80
2023-06-06T08:15:08.969Z,54.80
2023-06-06T08:17:36.981Z,54.80
2023-06-06T08:20:09.945Z,54.80
2023-06-06T08:22:39.309Z,54.90
2023-06-06T08:25:10.034Z,54.80
2023-06-06T08:27:39.973Z,55.00
2023-06-06T08:30:09.613Z,54.90
2023-06-06T08:32:38.797Z,54.90
2023-06-06T08:35:07.443Z,54.90
2023-06-06T08:37:35.642Z,54.90
2023-06-06T08:40:04.131Z,54.90
2023-06-06T08:42:36.439Z,54.90
2023-06-06T08:45:06.951Z,54.90
2023-06-06T08:47:35.137Z,55.00
2023-06-06T08:50:05.526Z,54.90
2023-06-06T08:52:35.663Z,54.90
2023-06-06T08:55:04.270Z,54.90
2023-06-06T08:57:34.650Z,55.00
2023-06-06T09:00:12.236Z,55.00
2023-06-06T09:02:42.895Z,55.00
2023-06-06T09:05:12.716Z,55.00
2023-06-06T09:07:41.312Z,55.00
2023-06-06T09:10:10.508Z,55.00
2023-06-06T09:12:43.144Z,55.00
2023-06-06T09:15:12.566Z,55.10
2023-06-06T09:17:41.214Z,55.00
2023-06-06T09:20:11.208Z,55.00
2023-06-06T09:22:40.007Z,55.00
2023-06-06T09:25:15.030Z,55.00
2023-06-06T09:27:44.272Z,55.00
2023-06-06T09:30:21.983Z,55.00
2023-06-06T09:32:54.657Z,55.10
2023-06-06T09:35:22.886Z,55.00
2023-06-06T09:37:51.255Z,55.10
2023-06-06T09:40:21.451Z,55.00
2023-06-06T09:42:51.954Z,55.10
2023-06-06T09:45:21.446Z,55.00
2023-06-06T09:47:50.633Z,55.10
2023-06-06T09:50:20.928Z,55.10
2023-06-06T09:52:52.512Z,55.10
2023-06-06T09:55:21.598Z,55.10
2023-06-06T09:57:56.469Z,55.10
2023-06-06T10:00:27.234Z,55.10
2023-06-06T10:02:56.281Z,55.10
2023-06-06T10:05:26.210Z,55.10
2023-06-06T10:07:57.459Z,55.10
2023-06-06T10:10:26.928Z,55.10
2023-06-06T10:12:58.818Z,55.10
2023-06-06T10:15:28.503Z,55.10
2023-06-06T10:17:56.910Z,55.10
2023-06-06T10:20:25.064Z,55.10
2023-06-06T10:22:53.333Z,55.10
2023-06-06T10:25:21.669Z,55.10
2023-06-06T10:27:54.860Z,55.10
2023-06-06T10:30:34.216Z,55.10
2023-06-06T10:33:16.134Z,55.80
2023-06-06T10:35:49.631Z,55.10
2023-06-06T10:38:19.871Z,55.10
2023-06-06T10:40:54.217Z,55.10
2023-06-06T10:43:56.662Z,55.10
2023-06-06T10:46:26.054Z,55.00
2023-06-06T10:49:02.891Z,55.10
2023-06-06T10:51:35.805Z,55.00
2023-06-06T10:54:20.760Z,55.20
2023-06-06T10:56:52.066Z,55.10
2023-06-06T10:59:23.800Z,55.20
2023-06-06T11:01:54.242Z,55.20
2023-06-06T11:04:23.620Z,55.20
2023-06-06T11:06:53.092Z,55.20
2023-06-06T11:09:23.518Z,55.10
2023-06-06T11:11:52.804Z,55.10
2023-06-06T11:14:23.377Z,55.10
2023-06-06T11:17:04.458Z,55.10
2023-06-06T11:19:35.097Z,55.10
2023-06-06T11:22:04.248Z,55.10
2023-06-06T11:24:36.783Z,55.10
2023-06-06T11:27:07.460Z,55.10
2023-06-06T11:29:36.146Z,55.10
2023-06-06T11:32:12.120Z,55.20
2023-06-06T11:34:40.590Z,55.10
2023-06-06T11:37:11.318Z,55.10
2023-06-06T11:39:39.352Z,55.10
2023-06-06T11:42:08.266Z,55.10
2023-06-06T11:44:38.386Z,55.10
2023-06-06T11:47:10.666Z,55.10
2023-06-06T11:49:47.291Z,55.10
2023-06-06T11:52:16.662Z,55.10
2023-06-06T11:54:54.203Z,55.10
2023-06-06T11:57:22.696Z,55.10
2023-06-06T11:59:58.189Z,55.10
2023-06-06T12:02:27.639Z,55.00
2023-06-06T12:04:55.680Z,55.00
2023-06-06T12:07:24.206Z,55.00
2023-06-06T12:09:59.688Z,55.00
2023-06-06T12:12:28.298Z,54.90
2023-06-06T12:15:00.040Z,55.00
2023-06-06T12:17:30.369Z,55.60
2023-06-06T12:19:58.897Z,54.90
2023-06-06T12:22:31.056Z,54.90
2023-06-06T12:24:58.978Z,54.90
2023-06-06T12:27:28.504Z,54.90
2023-06-06T12:29:57.238Z,55.00
2023-06-06T12:32:27.721Z,54.90
2023-06-06T12:35:02.727Z,54.90
2023-06-06T12:37:38.464Z,54.90
2023-06-06T12:40:16.189Z,54.90
2023-06-06T12:42:51.453Z,55.60
2023-06-06T12:45:19.612Z,55.00
2023-06-06T12:47:50.298Z,55.00
2023-06-06T12:50:19.870Z,55.00
2023-06-06T12:52:47.907Z,54.90
2023-06-06T12:55:16.154Z,54.90
2023-06-06T12:57:44.699Z,54.90
2023-06-06T13:00:15.146Z,55.10
2023-06-06T13:02:43.526Z,55.00
2023-06-06T13:05:12.070Z,54.90
2023-06-06T13:07:41.902Z,55.00
2023-06-06T13:10:13.377Z,55.00
2023-06-06T13:12:43.040Z,55.00
2023-06-06T13:15:12.829Z,55.10
2023-06-06T13:17:41.551Z,55.00
2023-06-06T13:20:11.659Z,55.10
2023-06-06T13:22:42.404Z,55.00
2023-06-06T13:25:11.035Z,55.00
2023-06-06T13:27:39.025Z,55.00
2023-06-06T13:30:08.440Z,55.10
2023-06-06T13:32:36.571Z,55.00
2023-06-06T13:35:05.036Z,55.00
2023-06-06T13:37:32.956Z,55.00
2023-06-06T13:40:02.463Z,55.00
2023-06-06T13:42:30.634Z,55.10
2023-06-06T13:44:58.543Z,55.00
2023-06-06T13:47:26.476Z,55.00
2023-06-06T13:49:55.745Z,55.10
2023-06-06T13:52:23.686Z,54.90
2023-06-06T13:54:52.676Z,55.00
2023-06-06T13:57:21.938Z,54.90
2023-06-06T13:59:49.938Z,55.00
2023-06-06T14:02:17.978Z,55.10
2023-06-06T14:04:46.034Z,55.10
2023-06-06T14:07:14.621Z,55.10
2023-06-06T14:09:43.672Z,55.10
2023-06-06T14:12:12.283Z,55.10
2023-06-06T14:14:41.815Z,55.10
2023-06-06T14:17:09.840Z,55.10
2023-06-06T14:19:39.038Z,55.10
2023-06-06T14:22:25.229Z,55.10
2023-06-06T14:24:55.569Z,55.70
2023-06-06T14:27:23.874Z,55.10
2023-06-06T14:29:56.096Z,55.10
2023-06-06T14:32:29.992Z,55.10
2023-06-06T14:34:59.894Z,55.10
2023-06-06T14:37:28.233Z,55.10
2023-06-06T14:39:57.319Z,55.20
2023-06-06T14:42:25.634Z,55.20
2023-06-06T14:44:56.795Z,55.20
2023-06-06T14:47:25.055Z,55.20
2023-06-06T14:49:53.280Z,55.20
2023-06-06T14:52:21.307Z,55.20
2023-06-06T14:54:50.362Z,55.20
2023-06-06T14:57:20.158Z,55.20
2023-06-06T14:59:48.222Z,55.20
2023-06-06T15:02:18.218Z,55.20
2023-06-06T15:04:47.215Z,55.20
2023-06-06T15:07:15.318Z,55.20
2023-06-06T15:09:43.254Z,55.30
2023-06-06T15:12:13.980Z,55.30
2023-06-06T15:14:42.576Z,55.20
2023-06-06T15:17:10.873Z,55.20
2023-06-06T15:19:44.108Z,55.20
2023-06-06T15:22:13.357Z,55.20
2023-06-06T15:24:41.726Z,55.20
2023-06-06T15:27:09.971Z,55.30
2023-06-06T15:29:42.548Z,55.20
2023-06-06T15:32:11.683Z,55.20
2023-06-06T15:34:41.232Z,55.20
2023-06-06T15:37:09.695Z,55.20
2023-06-06T15:39:37.668Z,55.20
2023-06-06T15:42:08.158Z,55.30
2023-06-06T15:44:36.212Z,55.30
2023-06-06T15:47:04.217Z,55.20
2023-06-06T15:49:32.102Z,55.20
2023-06-06T15:52:01.525Z,55.30
2023-06-06T15:54:29.539Z,55.30
2023-06-06T15:56:57.455Z,55.30
2023-06-06T15:59:26.506Z,55.90
2023-06-06T16:01:54.497Z,55.30
2023-06-06T16:04:23.876Z,55.20
2023-06-06T16:06:51.952Z,55.20
2023-06-06T16:09:21.577Z,55.20
2023-06-06T16:11:49.573Z,55.20
2023-06-06T16:14:17.559Z,55.30
2023-06-06T16:16:46.163Z,55.20
2023-06-06T16:19:14.258Z,55.20
2023-06-06T16:21:42.323Z,55.20
2023-06-06T16:24:10.436Z,55.20
2023-06-06T16:26:40.175Z,55.20
2023-06-06T16:29:08.138Z,55.30
2023-06-06T16:31:36.136Z,55.20
2023-06-06T16:34:04.481Z,55.30
2023-06-06T16:36:32.807Z,55.20
2023-06-06T16:39:01.092Z,55.20
2023-06-06T16:41:29.009Z,55.30
2023-06-06T16:43:58.268Z,55.20
2023-06-06T16:46:26.497Z,56.00
2023-06-06T16:48:54.441Z,55.40
2023-06-06T16:51:22.847Z,55.30
2023-06-06T16:53:50.751Z,55.20
2023-06-06T16:56:18.692Z,55.30
2023-06-06T16:58:46.605Z,55.20
2023-06-06T17:01:15.895Z,55.30
2023-06-06T17:03:43.900Z,55.30
2023-06-06T17:06:11.877Z,55.40
2023-06-06T17:08:39.786Z,55.30
2023-06-06T17:11:07.708Z,55.20
2023-06-06T17:13:36.054Z,55.40
2023-06-06T17:16:03.989Z,55.20
2023-06-06T17:18:33.261Z,55.40
2023-06-06T17:21:05.592Z,55.30
2023-06-06T17:23:33.520Z,55.40
2023-06-06T17:26:01.714Z,55.40
2023-06-06T17:28:30.504Z,55.40
2023-06-06T17:30:59.595Z,55.40
2023-06-06T17:33:28.137Z,55.40
2023-06-06T17:35:57.522Z,55.40
2023-06-06T17:38:25.462Z,55.40
2023-06-06T17:40:53.391Z,55.40
2023-06-06T17:43:21.560Z,55.40
2023-06-06T17:45:49.597Z,55.30
2023-06-06T17:48:17.543Z,55.40
2023-06-06T17:50:45.736Z,55.40
2023-06-06T17:53:15.016Z,55.40
2023-06-06T17:55:42.975Z,55.40
2023-06-06T17:58:10.909Z,55.30
2023-06-06T18:00:38.836Z,55.30
2023-06-06T18:03:07.377Z,55.40
2023-06-06T18:05:37.001Z,55.30
2023-06-06T18:08:05.661Z,55.40
2023-06-06T18:10:36.865Z,55.30
2023-06-06T18:13:05.833Z,55.30
2023-06-06T18:15:33.795Z,55.40
2023-06-06T18:18:02.284Z,55.30
2023-06-06T18:20:30.280Z,55.30
2023-06-06T18:22:59.037Z,55.30
2023-06-06T18:25:28.125Z,55.30
2023-06-06T18:27:58.071Z,55.30
2023-06-06T18:30:26.142Z,55.30
2023-06-06T18:32:54.237Z,55.40
2023-06-06T18:35:22.382Z,55.30
2023-06-06T18:37:56.742Z,55.30
2023-06-06T18:40:24.763Z,55.30
2023-06-06T18:42:53.743Z,55.30
2023-06-06T18:45:23.383Z,55.30
2023-06-06T18:47:53.359Z,55.30
2023-06-06T18:50:21.307Z,55.30
2023-06-06T18:52:49.364Z,55.40
2023-06-06T18:55:18.151Z,55.40
2023-06-06T18:57:46.367Z,55.30
2023-06-06T19:00:15.865Z,55.40
2023-06-06T19:02:45.281Z,55.30
2023-06-06T19:05:15.212Z,55.30
2023-06-06T19:07:43.773Z,55.30
2023-06-06T19:10:12.539Z,55.30
2023-06-06T19:12:47.746Z,55.30
2023-06-06T19:15:16.796Z,55.40
2023-06-06T19:17:46.399Z,55.30
2023-06-06T19:20:17.041Z,55.40
2023-06-06T19:22:45.742Z,55.40
2023-06-06T19:25:13.851Z,55.30
2023-06-06T19:27:41.812Z,55.40
2023-06-06T19:30:10.610Z,55.40
2023-06-06T19:32:38.610Z,55.40
2023-06-06T19:35:08.759Z,55.40
2023-06-06T19:37:37.532Z,55.30
2023-06-06T19:40:20.548Z,55.30
2023-06-06T19:42:48.767Z,55.40
2023-06-06T19:45:17.790Z,55.30
2023-06-06T19:47:47.819Z,55.40
2023-06-06T19:50:17.572Z,55.30
2023-06-06T19:52:46.060Z,55.20
2023-06-06T19:55:14.967Z,55.20
2023-06-06T19:57:43.571Z,55.40
2023-06-06T20:00:12.467Z,55.30
2023-06-06T20:02:41.026Z,55.30
2023-06-06T20:05:11.170Z,55.20
2023-06-06T20:07:40.827Z,55.30
2023-06-06T20:10:10.776Z,55.20
2023-06-06T20:12:39.815Z,55.30
2023-06-06T20:15:09.208Z,55.30
2023-06-06T20:17:39.125Z,55.30
2023-06-06T20:20:09.450Z,55.30
2023-06-06T20:22:37.483Z,55.30
2023-06-06T20:25:08.302Z,55.30
2023-06-06T20:27:36.336Z,55.30
2023-06-06T20:30:05.511Z,55.30
2023-06-06T20:32:33.814Z,55.30
2023-06-06T20:35:01.881Z,55.30
2023-06-06T20:37:30.152Z,55.30
2023-06-06T20:40:12.059Z,55.30
2023-06-06T20:42:41.564Z,55.30
2023-06-06T20:45:10.398Z,55.30
2023-06-06T20:47:41.051Z,55.30
2023-06-06T20:50:11.005Z,55.30
2023-06-06T20:52:41.260Z,55.30
2023-06-06T20:55:11.424Z,55.30
2023-06-06T20:57:41.512Z,55.30
2023-06-06T21:00:11.843Z,55.20
2023-06-06T21:02:39.893Z,55.20
2023-06-06T21:05:08.928Z,55.30
2023-06-06T21:07:36.931Z,55.30
2023-06-06T21:10:05.883Z,55.20
2023-06-06T21:12:34.312Z,55.20
2023-06-06T21:15:04.287Z,55.30
2023-06-06T21:17:32.304Z,55.30
2023-06-06T21:20:01.505Z,55.30
2023-06-06T21:22:30.034Z,55.30
2023-06-06T21:24:58.017Z,55.20
2023-06-06T21:27:25.996Z,55.30
2023-06-06T21:29:54.099Z,55.20
2023-06-06T21:32:23.513Z,55.20
2023-06-06T21:34:51.631Z,55.30
2023-06-06T21:37:21.754Z,55.20
2023-06-06T21:39:49.650Z,55.20
2023-06-06T21:42:17.603Z,55.20
2023-06-06T21:44:45.542Z,55.20
2023-06-06T21:47:13.515Z,55.20
2023-06-06T21:49:44.472Z,55.20
2023-06-06T21:52:12.695Z,55.30
2023-06-06T21:54:40.612Z,55.20
2023-06-06T21:57:08.623Z,55.20
2023-06-06T21:59:36.620Z,55.20
2023-06-06T22:02:04.839Z,55.20
2023-06-06T22:04:32.768Z,55.20
2023-06-06T22:07:04.064Z,55.20
2023-06-06T22:09:32.698Z,55.20
2023-06-06T22:12:01.614Z,55.20
2023-06-06T22:14:29.649Z,55.20
2023-06-06T22:16:57.664Z,55.20
2023-06-06T22:19:25.603Z,55.30
2023-06-06T22:21:53.853Z,55.20
2023-06-06T22:24:23.270Z,55.20
2023-06-06T22:26:53.050Z,55.20
2023-06-06T22:29:21.254Z,55.20
2023-06-06T22:31:52.054Z,55.20
2023-06-06T22:34:20.315Z,55.20
2023-06-06T22:36:48.411Z,55.20
2023-06-06T22:39:16.429Z,55.20
2023-06-06T22:41:46.393Z,55.20
2023-06-06T22:44:14.484Z,55.20
2023-06-06T22:46:42.454Z,55.20
2023-06-06T22:49:10.673Z,55.20
2023-06-06T22:51:38.633Z,55.20
2023-06-06T22:54:06.643Z,55.20
2023-06-06T22:56:34.631Z,55.20
2023-06-06T22:59:04.222Z,55.20
2023-06-06T23:01:32.584Z,55.20
2023-06-06T23:04:01.235Z,55.20
2023-06-06T23:06:29.379Z,55.20
2023-06-06T23:08:58.310Z,55.20
2023-06-06T23:11:26.683Z,55.20
2023-06-06T23:13:54.731Z,55.20
2023-06-06T23:16:24.120Z,55.20
2023-06-06T23:18:52.224Z,55.20
2023-06-06T23:21:21.892Z,55.20
2023-06-06T23:23:49.972Z,55.20
2023-06-06T23:26:17.932Z,55.20
2023-06-06T23:28:45.864Z,55.20
2023-06-06T23:31:13.854Z,55.20
2023-06-06T23:33:43.214Z,55.20
2023-06-06T23:36:11.441Z,55.20
2023-06-06T23:38:39.377Z,55.20
2023-06-06T23:41:07.327Z,55.20
2023-06-06T23:43:35.509Z,55.20
2023-06-06T23:46:03.638Z,55.20
2023-06-06T23:48:31.590Z,55.20
2023-06-06T23:51:00.917Z,55.20
2023-06-06T23:53:28.874Z,55.20
2023-06-06T23:55:59.670Z,55.10
2023-06-06T23:58:27.680Z,55.20
